createdAt,value
2019-04-22T00:00:53.829Z,61.10
2019-04-22T00:03:32.977Z,61.40
2019-04-22T00:06:19.518Z,61.50
2019-04-22T00:08:56.040Z,62.10
2019-04-22T00:13:56.874Z,63.30
2019-04-22T00:16:33.798Z,63.20
2019-04-22T00:19:17.650Z,63.00
2019-04-22T00:24:04.566Z,63.40
2019-04-22T00:26:43.999Z,63.90
2019-04-22T00:29:35.926Z,64.30
2019-04-22T00:32:19.382Z,64.10
2019-04-22T00:34:48.547Z,64.40
2019-04-22T00:37:25.137Z,65.10
2019-04-22T00:40:14.390Z,65.00
2019-04-22T00:42:27.491Z,65.00
2019-04-22T00:45:09.465Z,65.20
2019-04-22T00:47:32.146Z,65.60
2019-04-22T00:52:38.787Z,65.70
2019-04-22T00:55:12.239Z,66.00
2019-04-22T00:57:42.599Z,65.90
2019-04-22T01:00:21.389Z,66.60
2019-04-22T01:02:49.071Z,66.60
2019-04-22T01:05:21.500Z,66.60
2019-04-22T01:07:49.467Z,67.00
2019-04-22T01:10:26.436Z,67.20
2019-04-22T01:12:56.743Z,67.20
2019-04-22T01:15:30.270Z,68.20
2019-04-22T01:17:57.301Z,67.10
2019-04-22T01:23:05.507Z,67.00
2019-04-22T01:25:31.853Z,67.20
2019-04-22T01:28:00.947Z,67.50
2019-04-22T01:30:30.396Z,67.50
2019-04-22T01:32:57.908Z,67.50
2019-04-22T01:35:37.494Z,67.90
2019-04-22T01:38:13.321Z,68.10
2019-04-22T01:40:52.812Z,68.10
2019-04-22T01:43:33.501Z,68.30
2019-04-22T01:46:02.697Z,68.10
2019-04-22T01:48:33.060Z,68.30
2019-04-22T01:51:00.761Z,68.40
2019-04-22T01:53:33.444Z,68.50
2019-04-22T01:56:08.819Z,68.40
2019-04-22T01:58:33.574Z,68.80
2019-04-22T02:01:15.502Z,68.80
2019-04-22T02:03:52.034Z,69.30
2019-04-22T02:06:27.694Z,69.10
2019-04-22T02:08:52.817Z,69.00
2019-04-22T02:11:26.501Z,69.00
2019-04-22T02:13:56.551Z,69.20
2019-04-22T02:16:27.333Z,69.30
2019-04-22T02:19:01.176Z,69.00
2019-04-22T02:21:28.607Z,69.20
2019-04-22T02:24:06.318Z,69.60
2019-04-22T02:26:42.016Z,69.80
2019-04-22T02:29:06.469Z,69.60
2019-04-22T02:31:45.010Z,69.30
2019-04-22T02:34:22.236Z,69.60
2019-04-22T02:36:50.874Z,69.50
2019-04-22T02:42:00.820Z,70.50
2019-04-22T02:44:42.550Z,70.80
2019-04-22T02:49:50.881Z,70.10
2019-04-22T02:52:06.401Z,70.50
2019-04-22T02:59:54.821Z,71.00
2019-04-22T03:02:19.051Z,70.70
2019-04-22T03:04:57.973Z,70.60
2019-04-22T03:07:14.788Z,70.20
2019-04-22T03:09:52.644Z,70.10
2019-04-22T03:15:08.000Z,70.30
2019-04-22T03:17:30.875Z,70.50
2019-04-22T03:22:52.051Z,72.40
2019-04-22T03:25:33.056Z,71.40
2019-04-22T03:27:34.770Z,71.30
2019-04-22T03:40:34.597Z,71.90
2019-04-22T03:45:31.990Z,71.80
2019-04-22T03:53:09.782Z,72.00
2019-04-22T03:58:21.867Z,72.90
2019-04-22T04:00:49.795Z,73.20
2019-04-22T04:05:54.127Z,72.70
2019-04-22T04:08:19.705Z,72.50
2019-04-22T04:10:48.386Z,72.00
2019-04-22T04:15:46.640Z,72.00
2019-04-22T04:18:33.106Z,71.80
2019-04-22T04:21:17.708Z,72.00
2019-04-22T04:23:55.526Z,72.10
2019-04-22T04:26:05.163Z,72.00
2019-04-22T04:31:25.406Z,72.50
2019-04-22T04:36:23.708Z,73.70
2019-04-22T04:41:27.107Z,73.40
2019-04-22T04:44:15.342Z,73.40
2019-04-22T04:46:43.181Z,73.90
2019-04-22T04:54:15.143Z,74.30
2019-04-22T04:56:36.416Z,74.40
2019-04-22T04:59:16.280Z,74.60
2019-04-22T05:06:51.787Z,74.90
2019-04-22T05:11:53.956Z,74.40
2019-04-22T05:14:23.258Z,74.40
2019-04-22T05:16:59.738Z,74.40
2019-04-22T05:19:23.927Z,74.30
2019-04-22T05:21:53.077Z,74.00
2019-04-22T05:24:35.045Z,74.30
2019-04-22T05:27:02.127Z,73.80
2019-04-22T05:29:32.204Z,73.40
2019-04-22T05:31:56.997Z,73.60
2019-04-22T05:34:31.934Z,73.50
2019-04-22T05:37:02.410Z,73.60
2019-04-22T05:39:28.307Z,73.40
2019-04-22T05:42:10.490Z,72.90
2019-04-22T05:44:47.447Z,72.40
2019-04-22T05:47:08.340Z,72.30
2019-04-22T05:49:45.866Z,71.70
2019-04-22T05:52:17.268Z,71.30
2019-04-22T05:54:50.530Z,70.30
2019-04-22T05:57:19.801Z,69.20
2019-04-22T05:59:53.306Z,68.40
2019-04-22T06:02:33.875Z,68.50
2019-04-22T06:05:00.267Z,67.60
2019-04-22T06:07:27.910Z,67.20
2019-04-22T06:10:06.649Z,66.30
2019-04-22T06:12:26.790Z,65.90
2019-04-22T06:15:24.110Z,65.40
2019-04-22T06:17:54.848Z,65.20
2019-04-22T06:20:23.795Z,65.50
2019-04-22T06:22:58.509Z,65.10
2019-04-22T06:25:39.499Z,66.10
2019-04-22T06:28:07.125Z,66.00
2019-04-22T06:30:34.639Z,65.10
2019-04-22T06:33:11.297Z,63.90
2019-04-22T06:38:24.601Z,63.20
2019-04-22T06:41:05.792Z,63.10
2019-04-22T06:43:30.095Z,62.70
2019-04-22T06:45:45.015Z,62.20
2019-04-22T06:48:27.946Z,61.80
2019-04-22T06:53:25.589Z,61.70
2019-04-22T06:55:51.653Z,60.90
2019-04-22T06:58:28.607Z,60.30
2019-04-22T07:01:04.306Z,60.40
2019-04-22T07:06:07.382Z,59.90
2019-04-22T07:11:04.622Z,60.20
2019-04-22T07:16:13.370Z,60.00
2019-04-22T07:18:42.985Z,59.50
2019-04-22T07:21:19.624Z,59.70
2019-04-22T07:24:02.930Z,60.00
2019-04-22T07:26:21.571Z,59.80
2019-04-22T07:28:56.407Z,59.40
2019-04-22T07:31:43.124Z,59.30
2019-04-22T07:34:02.326Z,59.60
2019-04-22T07:39:05.619Z,59.00
2019-04-22T07:41:37.243Z,58.80
2019-04-22T07:44:16.663Z,58.40
2019-04-22T07:46:54.770Z,58.20
2019-04-22T07:49:18.320Z,58.50
2019-04-22T07:52:01.410Z,58.40
2019-04-22T07:54:24.649Z,58.30
2019-04-22T07:56:50.799Z,58.30
2019-04-22T08:01:59.132Z,58.30
2019-04-22T08:04:49.401Z,58.40
2019-04-22T08:07:10.945Z,58.10
2019-04-22T08:09:35.641Z,57.70
2019-04-22T08:12:04.140Z,57.40
2019-04-22T08:14:41.758Z,56.80
2019-04-22T08:17:43.460Z,57.00
2019-04-22T08:19:50.157Z,56.70
2019-04-22T08:22:22.347Z,56.30
2019-04-22T08:27:33.449Z,56.10
2019-04-22T08:30:06.491Z,55.60
2019-04-22T08:32:34.582Z,55.30
2019-04-22T08:35:05.903Z,55.00
2019-04-22T08:40:12.616Z,54.90
2019-04-22T08:42:53.359Z,55.30
2019-04-22T08:45:28.483Z,54.60
2019-04-22T08:48:01.219Z,53.30
2019-04-22T08:50:21.312Z,53.10
2019-04-22T08:53:00.353Z,53.00
2019-04-22T08:55:24.358Z,52.60
2019-04-22T09:00:33.862Z,52.00
2019-04-22T09:03:04.722Z,51.60
2019-04-22T09:05:48.687Z,50.90
2019-04-22T09:08:15.567Z,50.00
2019-04-22T09:10:46.859Z,50.40
2019-04-22T09:13:14.491Z,49.70
2019-04-22T09:15:49.598Z,49.00
2019-04-22T09:18:21.764Z,49.00
2019-04-22T09:21:01.423Z,49.10
2019-04-22T09:25:53.186Z,47.50
2019-04-22T09:28:31.143Z,47.00
2019-04-22T09:31:01.303Z,47.10
2019-04-22T09:33:31.928Z,46.20
2019-04-22T09:36:13.037Z,46.20
2019-04-22T09:38:38.348Z,47.00
2019-04-22T09:41:13.978Z,46.20
2019-04-22T09:43:50.834Z,46.50
2019-04-22T09:46:17.263Z,46.40
2019-04-22T09:51:18.710Z,46.10
2019-04-22T09:53:54.808Z,45.30
2019-04-22T09:56:26.060Z,45.00
2019-04-22T09:58:59.343Z,45.10
2019-04-22T10:04:00.619Z,45.30
2019-04-22T10:09:26.999Z,45.30
2019-04-22T10:11:37.736Z,44.30
2019-04-22T10:14:13.907Z,44.20
2019-04-22T10:16:45.266Z,44.30
2019-04-22T10:19:18.084Z,44.30
2019-04-22T10:21:51.101Z,44.30
2019-04-22T10:24:33.050Z,43.60
2019-04-22T10:26:55.342Z,42.90
2019-04-22T10:29:24.750Z,44.40
2019-04-22T10:31:55.802Z,42.70
2019-04-22T10:34:14.149Z,41.60
2019-04-22T10:36:35.573Z,41.70
2019-04-22T10:39:16.226Z,41.60
2019-04-22T10:41:46.775Z,42.00
2019-04-22T10:44:17.305Z,39.60
2019-04-22T10:46:48.306Z,37.90
2019-04-22T10:49:22.384Z,37.30
2019-04-22T10:51:53.140Z,37.00
2019-04-22T10:54:25.368Z,35.90
2019-04-22T10:56:56.957Z,37.00
2019-04-22T10:59:28.753Z,36.30
2019-04-22T11:01:59.357Z,35.70
2019-04-22T11:04:30.238Z,35.80
2019-04-22T11:07:03.927Z,36.10
2019-04-22T11:09:40.332Z,35.00
2019-04-22T11:12:13.897Z,34.00
2019-04-22T11:14:43.193Z,34.60
2019-04-22T11:17:15.636Z,34.00
2019-04-22T11:19:49.977Z,34.40
2019-04-22T11:22:36.842Z,33.70
2019-04-22T11:25:06.043Z,33.80
2019-04-22T11:27:37.184Z,33.60
2019-04-22T11:30:09.123Z,33.50
2019-04-22T11:32:40.437Z,33.70
2019-04-22T11:35:13.885Z,34.80
2019-04-22T11:37:44.849Z,35.50
2019-04-22T11:40:22.272Z,36.00
2019-04-22T11:42:48.222Z,36.00
2019-04-22T11:45:21.428Z,36.40
2019-04-22T11:47:53.156Z,36.30
2019-04-22T11:50:24.322Z,36.30
2019-04-22T11:52:55.269Z,35.90
2019-04-22T11:55:26.841Z,36.30
2019-04-22T11:57:58.845Z,34.70
2019-04-22T12:00:37.031Z,34.30
2019-04-22T12:03:09.287Z,34.00
2019-04-22T12:05:39.941Z,33.70
2019-04-22T12:08:11.301Z,33.10
2019-04-22T12:10:49.493Z,34.70
2019-04-22T12:13:15.652Z,32.50
2019-04-22T12:15:46.827Z,31.60
2019-04-22T12:18:17.410Z,32.20
2019-04-22T12:20:47.896Z,32.40
2019-04-22T12:23:18.987Z,32.20
2019-04-22T12:25:58.243Z,30.30
2019-04-22T12:28:24.052Z,30.20
2019-04-22T12:30:55.294Z,30.60
2019-04-22T12:33:27.588Z,31.40
2019-04-22T12:35:58.379Z,30.50
2019-04-22T12:38:29.426Z,29.80
2019-04-22T12:41:04.360Z,30.10
2019-04-22T12:43:33.636Z,30.40
2019-04-22T12:46:05.839Z,30.80
2019-04-22T12:48:37.055Z,31.40
2019-04-22T12:51:09.208Z,31.40
2019-04-22T12:53:40.283Z,32.10
2019-04-22T12:56:12.565Z,31.90
2019-04-22T12:58:43.569Z,31.50
2019-04-22T13:01:15.113Z,31.10
2019-04-22T13:03:46.462Z,31.80
2019-04-22T13:06:17.569Z,32.10
2019-04-22T13:08:49.845Z,32.70
2019-04-22T13:11:27.898Z,32.60
2019-04-22T13:13:52.586Z,32.70
2019-04-22T13:16:23.028Z,32.30
2019-04-22T13:18:59.280Z,33.50
2019-04-22T13:21:26.931Z,33.10
2019-04-22T13:23:57.477Z,33.40
2019-04-22T13:26:29.373Z,33.50
2019-04-22T13:29:03.202Z,33.60
2019-04-22T13:31:34.889Z,34.50
2019-04-22T13:34:09.581Z,35.30
2019-04-22T13:36:41.077Z,35.60
2019-04-22T13:39:11.292Z,35.10
2019-04-22T13:44:14.636Z,35.50
2019-04-22T13:47:02.103Z,35.10
2019-04-22T13:49:49.548Z,35.80
2019-04-22T13:52:35.178Z,36.00
2019-04-22T13:53:53.454Z,35.90
2019-04-22T13:57:18.573Z,35.30
2019-04-22T13:59:38.184Z,35.30
2019-04-22T14:02:19.563Z,35.30
2019-04-22T14:04:52.338Z,35.20
2019-04-22T14:07:23.201Z,34.20
2019-04-22T14:09:56.121Z,34.30
2019-04-22T14:12:28.773Z,34.70
2019-04-22T14:15:00.225Z,34.60
2019-04-22T14:17:31.521Z,35.00
2019-04-22T14:20:02.732Z,35.20
2019-04-22T14:22:34.661Z,35.60
2019-04-22T14:25:06.933Z,35.30
2019-04-22T14:27:47.534Z,35.40
2019-04-22T14:30:10.531Z,36.00
2019-04-22T14:32:42.126Z,36.30
2019-04-22T14:35:15.357Z,36.30
2019-04-22T14:37:46.064Z,37.00
2019-04-22T14:40:18.764Z,37.50
2019-04-22T14:43:09.143Z,37.30
2019-04-22T14:45:58.477Z,37.80
2019-04-22T14:48:24.785Z,36.80
2019-04-22T14:50:48.204Z,37.50
2019-04-22T14:53:21.757Z,37.80
2019-04-22T14:55:36.269Z,37.90
2019-04-22T14:58:04.947Z,38.00
2019-04-22T15:00:35.825Z,37.90
2019-04-22T15:03:08.183Z,38.50
2019-04-22T15:05:40.106Z,38.30
2019-04-22T15:08:11.012Z,39.10
2019-04-22T15:10:42.238Z,39.80
2019-04-22T15:13:13.476Z,39.90
2019-04-22T15:16:01.048Z,40.20
2019-04-22T15:18:49.942Z,40.30
2019-04-22T15:21:22.949Z,40.50
2019-04-22T15:23:53.438Z,39.80
2019-04-22T15:26:24.550Z,40.00
2019-04-22T15:28:55.499Z,40.90
2019-04-22T15:31:27.157Z,40.10
2019-04-22T15:33:58.659Z,40.30
2019-04-22T15:36:30.328Z,40.70
2019-04-22T15:39:02.967Z,40.60
2019-04-22T15:41:36.716Z,40.50
2019-04-22T15:44:08.010Z,40.40
2019-04-22T15:46:39.057Z,41.00
2019-04-22T15:49:09.915Z,40.60
2019-04-22T15:51:40.826Z,40.80
2019-04-22T15:54:11.807Z,40.80
2019-04-22T15:56:46.456Z,40.30
2019-04-22T15:59:36.001Z,40.40
2019-04-22T16:01:50.467Z,39.60
2019-04-22T16:04:21.009Z,38.90
2019-04-22T16:06:52.853Z,39.60
2019-04-22T16:09:24.899Z,39.20
2019-04-22T16:11:58.028Z,39.00
2019-04-22T16:14:32.800Z,39.10
2019-04-22T16:17:00.894Z,39.10
2019-04-22T16:19:32.848Z,38.90
2019-04-22T16:22:08.705Z,38.20
2019-04-22T16:24:47.917Z,38.10
2019-04-22T16:27:22.818Z,38.40
2019-04-22T16:29:55.004Z,38.10
2019-04-22T16:32:27.617Z,38.00
2019-04-22T16:34:58.866Z,38.00
2019-04-22T16:37:30.593Z,38.20
2019-04-22T16:40:03.054Z,38.40
2019-04-22T16:42:43.257Z,38.50
2019-04-22T16:45:07.580Z,38.60
2019-04-22T16:47:39.546Z,38.60
2019-04-22T16:50:10.313Z,39.10
2019-04-22T16:53:02.040Z,39.90
2019-04-22T16:55:32.801Z,40.20
2019-04-22T16:58:05.272Z,40.30
2019-04-22T17:00:36.654Z,39.90
2019-04-22T17:03:26.720Z,40.40
2019-04-22T17:06:25.706Z,39.80
2019-04-22T17:08:57.135Z,39.90
2019-04-22T17:11:27.912Z,40.00
2019-04-22T17:13:59.336Z,39.90
2019-04-22T17:16:30.688Z,39.80
2019-04-22T17:19:02.526Z,39.40
2019-04-22T17:21:33.564Z,39.30
2019-04-22T17:24:05.555Z,39.60
2019-04-22T17:26:36.764Z,39.90
2019-04-22T17:29:08.431Z,39.70
2019-04-22T17:31:42.061Z,39.60
2019-04-22T17:34:11.633Z,39.60
2019-04-22T17:36:42.407Z,39.90
2019-04-22T17:39:27.002Z,39.80
2019-04-22T17:42:06.909Z,39.80
2019-04-22T17:44:46.481Z,39.80
2019-04-22T17:47:25.892Z,39.70
2019-04-22T17:50:10.660Z,39.70
2019-04-22T17:52:38.908Z,39.70
2019-04-22T17:55:09.807Z,40.10
2019-04-22T17:57:38.454Z,40.80
2019-04-22T18:00:14.466Z,41.40
2019-04-22T18:02:45.743Z,42.90
2019-04-22T18:05:04.268Z,42.40
2019-04-22T18:07:55.932Z,42.60
2019-04-22T18:13:07.478Z,44.10
2019-04-22T18:15:40.940Z,44.80
2019-04-22T18:18:12.345Z,45.20
2019-04-22T18:20:34.971Z,46.10
2019-04-22T18:23:03.640Z,45.90
2019-04-22T18:25:44.962Z,46.50
2019-04-22T18:28:39.609Z,46.70
2019-04-22T18:31:15.051Z,46.90
2019-04-22T18:33:46.538Z,47.30
2019-04-22T18:36:14.121Z,48.70
2019-04-22T18:38:58.695Z,48.70
2019-04-22T18:41:17.804Z,48.70
2019-04-22T18:44:01.791Z,49.10
2019-04-22T18:46:26.968Z,49.60
2019-04-22T18:49:00.544Z,49.60
2019-04-22T18:51:42.593Z,49.20
2019-04-22T18:54:36.735Z,49.60
2019-04-22T18:57:07.395Z,49.90
2019-04-22T18:59:27.835Z,50.40
2019-04-22T19:02:02.550Z,50.60
2019-04-22T19:04:37.933Z,51.10
2019-04-22T19:07:28.590Z,51.30
2019-04-22T19:15:19.168Z,52.00
2019-04-22T19:17:39.139Z,52.80
2019-04-22T19:20:10.771Z,52.20
2019-04-22T19:22:37.406Z,52.50
2019-04-22T19:25:00.078Z,52.60
2019-04-22T19:27:35.624Z,52.60
2019-04-22T19:30:16.394Z,53.00
2019-04-22T19:32:45.906Z,53.60
2019-04-22T19:35:14.017Z,53.80
2019-04-22T19:37:45.230Z,54.40
2019-04-22T19:40:26.017Z,54.50
2019-04-22T19:42:57.441Z,55.00
2019-04-22T19:45:20.267Z,55.80
2019-04-22T19:48:06.582Z,55.30
2019-04-22T19:50:35.434Z,55.10
2019-04-22T19:53:04.896Z,55.10
2019-04-22T19:55:39.280Z,54.90
2019-04-22T19:58:10.789Z,55.10
2019-04-22T20:00:52.070Z,55.10
2019-04-22T20:03:50.838Z,55.80
2019-04-22T20:06:26.853Z,55.90
2019-04-22T20:09:01.847Z,55.90
2019-04-22T20:11:37.621Z,56.20
2019-04-22T20:14:07.364Z,56.50
2019-04-22T20:16:38.526Z,56.60
2019-04-22T20:19:25.576Z,56.90
2019-04-22T20:21:51.249Z,56.90
2019-04-22T20:24:10.028Z,57.30
2019-04-22T20:27:16.420Z,57.20
2019-04-22T20:29:31.030Z,57.40
2019-04-22T20:31:59.256Z,57.80
2019-04-22T20:34:38.220Z,58.60
2019-04-22T20:37:10.722Z,58.60
2019-04-22T20:39:37.956Z,58.30
2019-04-22T20:42:23.139Z,58.60
2019-04-22T20:44:47.299Z,58.20
2019-04-22T20:47:09.163Z,58.40
2019-04-22T20:49:50.385Z,58.60
2019-04-22T20:52:26.641Z,58.40
2019-04-22T20:54:49.485Z,58.80
2019-04-22T20:57:23.977Z,58.60
2019-04-22T20:59:52.260Z,58.80
2019-04-22T21:02:25.220Z,58.70
2019-04-22T21:04:49.026Z,59.30
2019-04-22T21:07:26.681Z,60.00
2019-04-22T21:10:04.328Z,60.00
2019-04-22T21:12:29.268Z,59.80
2019-04-22T21:15:17.848Z,60.00
2019-04-22T21:17:42.877Z,60.00
2019-04-22T21:20:22.366Z,60.80
2019-04-22T21:22:54.965Z,59.80
2019-04-22T21:25:18.280Z,60.00
2019-04-22T21:27:56.871Z,60.20
2019-04-22T21:30:26.480Z,60.70
2019-04-22T21:32:57.964Z,60.90
2019-04-22T21:35:48.579Z,60.80
2019-04-22T21:38:08.430Z,60.20
2019-04-22T21:40:37.661Z,60.10
2019-04-22T21:43:16.581Z,60.20
2019-04-22T21:45:39.189Z,60.00
2019-04-22T21:48:26.306Z,60.10
2019-04-22T21:50:54.552Z,60.20
2019-04-22T21:53:29.250Z,60.10
2019-04-22T21:56:04.329Z,59.90
2019-04-22T21:58:33.295Z,59.90
2019-04-22T22:01:35.580Z,59.80
2019-04-22T22:04:03.093Z,60.00
2019-04-22T22:06:19.594Z,59.40
2019-04-22T22:09:02.542Z,59.50
2019-04-22T22:11:37.181Z,59.10
2019-04-22T22:14:07.815Z,59.30
2019-04-22T22:16:31.553Z,59.20
2019-04-22T22:19:10.977Z,59.50
2019-04-22T22:24:18.517Z,59.30
2019-04-22T22:26:50.896Z,59.20
2019-04-22T22:29:29.411Z,59.40
2019-04-22T22:32:03.218Z,59.60
2019-04-22T22:34:26.636Z,59.50
2019-04-22T22:36:50.409Z,59.80
2019-04-22T22:39:23.197Z,59.50
2019-04-22T22:41:44.031Z,59.50
2019-04-22T22:44:24.210Z,59.60
2019-04-22T22:47:03.193Z,59.60
2019-04-22T22:49:42.861Z,59.50
2019-04-22T22:52:40.854Z,59.40
2019-04-22T22:54:53.103Z,59.90
2019-04-22T22:57:25.844Z,59.90
2019-04-22T22:59:50.229Z,59.60
2019-04-22T23:02:22.997Z,59.30
2019-04-22T23:04:52.564Z,59.60
2019-04-22T23:07:28.782Z,60.00
2019-04-22T23:10:00.164Z,60.00
2019-04-22T23:12:40.869Z,60.40
2019-04-22T23:14:59.294Z,60.10
2019-04-22T23:17:21.435Z,59.70
2019-04-22T23:19:52.116Z,59.70
2019-04-22T23:22:28.449Z,59.90
2019-04-22T23:25:16.054Z,59.70
2019-04-22T23:27:52.803Z,60.10
2019-04-22T23:30:56.764Z,60.00
2019-04-22T23:33:42.494Z,60.20
2019-04-22T23:36:18.926Z,60.40
2019-04-22T23:39:09.726Z,60.20
2019-04-22T23:41:55.452Z,60.50
2019-04-22T23:44:11.412Z,60.70
2019-04-22T23:46:57.160Z,60.60
2019-04-22T23:49:25.053Z,61.10
2019-04-22T23:52:22.689Z,61.10
2019-04-22T23:54:40.617Z,61.40
2019-04-22T23:57:03.353Z,60.90
2019-04-22T23:59:51.081Z,60.70
